createdAt,value
2022-08-05T00:00:52.238Z,0.00
2022-08-05T00:01:52.241Z,0.00
2022-08-05T00:02:52.419Z,0.00
2022-08-05T00:03:52.106Z,0.00
2022-08-05T00:04:55.516Z,0.00
2022-08-05T00:06:04.801Z,0.00
2022-08-05T00:06:53.080Z,0.00
2022-08-05T00:08:00.351Z,0.00
2022-08-05T00:08:53.174Z,0.00
2022-08-05T00:09:52.109Z,0.00
2022-08-05T00:10:52.019Z,0.00
2022-08-05T00:11:56.142Z,0.00
2022-08-05T00:12:56.734Z,0.00
2022-08-05T00:13:53.128Z,0.00
2022-08-05T00:14:52.033Z,0.00
2022-08-05T00:15:57.685Z,0.00
2022-08-05T00:16:54.036Z,0.00
2022-08-05T00:17:51.943Z,0.00
2022-08-05T00:18:51.937Z,0.00
2022-08-05T00:20:02.552Z,0.00
2022-08-05T00:20:52.922Z,0.00
2022-08-05T00:21:51.905Z,0.00
2022-08-05T00:22:55.245Z,0.00
2022-08-05T00:24:09.859Z,0.00
2022-08-05T00:24:55.072Z,0.00
2022-08-05T00:25:51.848Z,0.00
2022-08-05T00:26:52.885Z,0.00
2022-08-05T00:27:51.906Z,0.00
2022-08-05T00:28:51.932Z,0.00
2022-08-05T00:29:51.810Z,0.00
2022-08-05T00:30:52.041Z,0.00
2022-08-05T00:32:11.217Z,0.00
2022-08-05T00:32:52.772Z,0.00
2022-08-05T00:34:54.153Z,0.00
2022-08-05T00:35:05.391Z,0.00
2022-08-05T00:36:16.062Z,0.00
2022-08-05T00:37:11.882Z,0.00
2022-08-05T00:37:54.141Z,0.00
2022-08-05T00:38:51.719Z,0.00
2022-08-05T00:39:58.829Z,0.00
2022-08-05T00:40:53.419Z,0.00
2022-08-05T00:41:55.502Z,0.00
2022-08-05T00:42:51.670Z,0.00
2022-08-05T00:43:51.657Z,0.00
2022-08-05T00:44:51.651Z,0.00
2022-08-05T00:45:51.659Z,0.00
2022-08-05T00:46:54.237Z,0.00
2022-08-05T00:47:56.381Z,0.00
2022-08-05T00:48:52.663Z,0.00
2022-08-05T00:49:51.949Z,0.00
2022-08-05T00:50:51.678Z,0.00
2022-08-05T00:51:52.371Z,0.00
2022-08-05T00:52:51.579Z,0.00
2022-08-05T00:54:02.412Z,0.00
2022-08-05T00:54:52.544Z,0.00
2022-08-05T00:55:51.565Z,0.00
2022-08-05T00:56:51.948Z,0.00
2022-08-05T00:57:57.890Z,0.00
2022-08-05T00:58:52.523Z,0.00
2022-08-05T00:59:51.499Z,0.00
2022-08-05T01:00:51.509Z,0.00
2022-08-05T01:01:51.990Z,0.00
2022-08-05T01:02:51.455Z,0.00
2022-08-05T01:03:51.446Z,0.00
2022-08-05T01:04:51.434Z,0.00
2022-08-05T01:05:51.603Z,0.00
2022-08-05T01:06:51.726Z,0.00
2022-08-05T01:08:39.169Z,0.00
2022-08-05T01:08:52.413Z,0.00
2022-08-05T01:09:55.566Z,0.00
2022-08-05T01:10:52.195Z,0.00
2022-08-05T01:11:51.762Z,0.00
2022-08-05T01:13:05.105Z,0.00
2022-08-05T01:13:57.302Z,0.00
2022-08-05T01:14:52.315Z,0.00
2022-08-05T01:15:51.304Z,0.00
2022-08-05T01:16:52.337Z,0.00
2022-08-05T01:17:53.626Z,0.00
2022-08-05T01:18:56.223Z,0.00
2022-08-05T01:20:01.265Z,0.00
2022-08-05T01:20:52.276Z,0.00
2022-08-05T01:21:51.237Z,0.00
2022-08-05T01:22:51.240Z,0.00
2022-08-05T01:23:53.143Z,0.00
2022-08-05T01:24:51.311Z,0.00
2022-08-05T01:25:52.387Z,0.00
2022-08-05T01:26:51.208Z,0.00
2022-08-05T01:27:55.739Z,0.00
2022-08-05T01:28:51.238Z,0.00
2022-08-05T01:29:51.787Z,0.00
2022-08-05T01:30:53.831Z,0.00
2022-08-05T01:31:51.139Z,0.00
2022-08-05T01:32:51.136Z,0.00
2022-08-05T01:33:53.543Z,0.00
2022-08-05T01:34:51.119Z,0.00
2022-08-05T01:35:53.508Z,0.00
2022-08-05T01:36:51.138Z,0.00
2022-08-05T01:37:51.132Z,0.00
2022-08-05T01:38:51.058Z,0.00
2022-08-05T01:39:51.097Z,0.00
2022-08-05T01:40:51.053Z,0.00
2022-08-05T01:41:51.017Z,0.00
2022-08-05T01:42:51.104Z,0.00
2022-08-05T01:43:51.019Z,0.00
2022-08-05T01:44:53.851Z,0.00
2022-08-05T01:45:56.148Z,0.00
2022-08-05T01:46:51.978Z,0.00
2022-08-05T01:47:54.477Z,0.00
2022-08-05T01:48:50.945Z,0.00
2022-08-05T01:50:01.862Z,0.00
2022-08-05T01:50:51.937Z,0.00
2022-08-05T01:51:51.924Z,0.00
2022-08-05T01:52:50.903Z,0.00
2022-08-05T01:53:57.979Z,0.00
2022-08-05T01:54:52.037Z,0.00
2022-08-05T01:55:50.885Z,0.00
2022-08-05T01:58:10.811Z,0.00
2022-08-05T01:58:12.975Z,0.00
2022-08-05T01:58:52.215Z,0.00
2022-08-05T01:59:50.832Z,0.00
2022-08-05T02:00:50.815Z,0.00
2022-08-05T02:01:50.854Z,0.00
2022-08-05T02:02:54.316Z,0.00
2022-08-05T02:03:50.770Z,0.00
2022-08-05T02:04:50.773Z,0.00
2022-08-05T02:05:50.827Z,0.00
2022-08-05T02:06:50.763Z,0.00
2022-08-05T02:08:00.055Z,0.00
2022-08-05T02:08:57.920Z,0.00
2022-08-05T02:09:51.720Z,0.00
2022-08-05T02:10:50.744Z,0.00
2022-08-05T02:11:52.293Z,0.00
2022-08-05T02:12:50.988Z,0.00
2022-08-05T02:13:53.696Z,0.00
2022-08-05T02:14:50.669Z,0.00
2022-08-05T02:15:50.720Z,0.00
2022-08-05T02:16:52.984Z,0.00
2022-08-05T02:18:30.758Z,0.00
2022-08-05T02:18:51.650Z,0.00
2022-08-05T02:19:50.604Z,0.00
2022-08-05T02:20:50.632Z,0.00
2022-08-05T02:21:50.589Z,0.00
2022-08-05T02:22:50.572Z,0.00
2022-08-05T02:23:50.587Z,0.00
2022-08-05T02:24:51.332Z,0.00
2022-08-05T02:25:50.715Z,0.00
2022-08-05T02:26:53.827Z,0.00
2022-08-05T02:27:58.516Z,0.00
2022-08-05T02:28:51.511Z,0.00
2022-08-05T02:30:00.027Z,0.00
2022-08-05T02:30:54.228Z,0.00
2022-08-05T02:31:51.469Z,0.00
2022-08-05T02:32:50.497Z,0.00
2022-08-05T02:33:57.446Z,0.00
2022-08-05T02:34:54.925Z,0.00
2022-08-05T02:35:57.489Z,0.00
2022-08-05T02:36:51.426Z,0.00
2022-08-05T02:37:53.998Z,0.00
2022-08-05T02:38:53.356Z,0.00
2022-08-05T02:39:51.657Z,0.00
2022-08-05T02:40:50.397Z,0.00
2022-08-05T02:42:00.447Z,0.00
2022-08-05T02:42:53.097Z,0.00
2022-08-05T02:44:05.932Z,0.00
2022-08-05T02:44:51.343Z,0.00
2022-08-05T02:45:52.556Z,0.00
2022-08-05T02:46:59.825Z,0.00
2022-08-05T02:48:06.769Z,0.00
2022-08-05T02:48:51.292Z,0.00
2022-08-05T02:49:50.278Z,0.00
2022-08-05T02:50:50.287Z,0.00
2022-08-05T02:52:02.784Z,0.00
2022-08-05T02:52:51.294Z,0.00
2022-08-05T02:53:50.232Z,0.00
2022-08-05T02:54:50.909Z,0.00
2022-08-05T02:55:54.857Z,0.00
2022-08-05T02:56:51.197Z,0.00
2022-08-05T02:58:10.736Z,0.00
2022-08-05T02:58:52.606Z,0.00
2022-08-05T02:59:51.974Z,0.00
2022-08-05T03:00:50.199Z,0.00
2022-08-05T03:01:50.221Z,0.00
2022-08-05T03:02:50.204Z,0.00
2022-08-05T03:04:08.831Z,0.00
2022-08-05T03:04:53.120Z,0.00
2022-08-05T03:06:53.818Z,0.00
2022-08-05T03:06:55.097Z,0.00
2022-08-05T03:08:06.795Z,0.00
2022-08-05T03:08:52.293Z,0.00
2022-08-05T03:09:51.976Z,0.00
2022-08-05T03:11:01.311Z,0.00
2022-08-05T03:11:56.715Z,0.00
2022-08-05T03:12:51.770Z,0.00
2022-08-05T03:13:52.130Z,0.00
2022-08-05T03:14:50.997Z,0.00
2022-08-05T03:15:49.996Z,0.00
2022-08-05T03:16:51.815Z,0.00
2022-08-05T03:17:50.152Z,0.00
2022-08-05T03:18:49.974Z,0.00
2022-08-05T03:19:50.032Z,0.00
2022-08-05T03:20:50.398Z,0.00
2022-08-05T03:21:50.084Z,0.00
2022-08-05T03:22:50.621Z,0.00
2022-08-05T03:23:49.898Z,0.00
2022-08-05T03:24:51.059Z,0.00
2022-08-05T03:26:04.897Z,0.00
2022-08-05T03:26:50.910Z,0.00
2022-08-05T03:27:58.914Z,0.00
2022-08-05T03:28:50.932Z,0.00
2022-08-05T03:30:07.827Z,4.00
2022-08-05T03:30:51.037Z,4.00
2022-08-05T03:31:55.687Z,0.00
2022-08-05T03:32:50.952Z,4.00
2022-08-05T03:33:52.821Z,0.00
2022-08-05T03:34:50.425Z,4.00
2022-08-05T03:35:49.870Z,4.00
2022-08-05T03:36:49.764Z,4.00
2022-08-05T03:37:49.805Z,8.00
2022-08-05T03:38:54.204Z,8.00
2022-08-05T03:39:58.767Z,8.00
2022-08-05T03:40:50.780Z,12.00
2022-08-05T03:41:49.714Z,12.00
2022-08-05T03:42:52.137Z,16.00
2022-08-05T03:44:08.305Z,20.00
2022-08-05T03:44:50.746Z,20.00
2022-08-05T03:45:57.547Z,24.00
2022-08-05T03:46:50.691Z,32.00
2022-08-05T03:47:49.648Z,36.00
2022-08-05T03:48:49.637Z,44.00
2022-08-05T03:49:51.282Z,52.00
2022-08-05T03:50:49.611Z,60.00
2022-08-05T03:52:38.380Z,68.00
2022-08-05T03:55:50.144Z,76.00
2022-08-05T03:55:51.934Z,88.00
2022-08-05T03:55:51.937Z,104.00
2022-08-05T03:56:11.424Z,124.00
2022-08-05T03:56:50.565Z,140.00
2022-08-05T03:57:49.821Z,160.00
2022-08-05T03:58:51.140Z,180.00
2022-08-05T03:59:54.894Z,200.00
2022-08-05T04:00:51.701Z,224.00
2022-08-05T04:01:49.566Z,244.00
2022-08-05T04:02:57.588Z,268.00
2022-08-05T04:04:08.923Z,292.00
2022-08-05T04:04:50.456Z,316.00
2022-08-05T04:05:49.454Z,348.00
2022-08-05T04:06:51.134Z,380.00
2022-08-05T04:07:58.062Z,420.00
2022-08-05T04:08:50.449Z,460.00
2022-08-05T04:09:53.795Z,492.00
2022-08-05T04:10:49.390Z,528.00
2022-08-05T04:11:52.455Z,564.00
2022-08-05T04:12:49.375Z,604.00
2022-08-05T04:13:53.461Z,640.00
2022-08-05T04:14:49.348Z,680.00
2022-08-05T04:16:02.710Z,716.00
2022-08-05T04:16:50.317Z,760.00
2022-08-05T04:17:57.145Z,812.00
2022-08-05T04:18:54.318Z,868.00
2022-08-05T04:19:54.252Z,928.00
2022-08-05T04:20:50.272Z,992.00
2022-08-05T04:22:09.131Z,1060.00
2022-08-05T04:22:50.269Z,1132.00
2022-08-05T04:24:05.256Z,1216.00
2022-08-05T04:24:52.740Z,1300.00
2022-08-05T04:26:00.390Z,1380.00
2022-08-05T04:26:50.238Z,1460.00
2022-08-05T04:27:57.589Z,1532.00
2022-08-05T04:28:51.328Z,1604.00
2022-08-05T04:29:49.179Z,1676.00
2022-08-05T04:30:49.196Z,1744.00
2022-08-05T04:31:49.677Z,1804.00
2022-08-05T04:32:49.176Z,1868.00
2022-08-05T04:34:17.510Z,1920.00
2022-08-05T04:34:50.209Z,1968.00
2022-08-05T04:36:16.177Z,1996.00
2022-08-05T04:36:50.543Z,2020.00
2022-08-05T04:38:02.976Z,2040.00
2022-08-05T04:38:51.018Z,2060.00
2022-08-05T04:39:52.932Z,2084.00
2022-08-05T04:40:50.840Z,2136.00
2022-08-05T04:41:50.911Z,2204.00
2022-08-05T04:42:49.056Z,2276.00
2022-08-05T04:43:52.116Z,2356.00
2022-08-05T04:44:49.013Z,2440.00
2022-08-05T04:45:55.009Z,2504.00
2022-08-05T04:46:49.985Z,2556.00
2022-08-05T04:47:48.985Z,2596.00
2022-08-05T04:48:48.975Z,2680.00
2022-08-05T04:50:03.013Z,2796.00
2022-08-05T04:51:03.812Z,2928.00
2022-08-05T04:51:49.951Z,3080.00
2022-08-05T04:52:49.942Z,3228.00
2022-08-05T04:53:48.927Z,3384.00
2022-08-05T04:54:49.340Z,3592.00
2022-08-05T04:56:14.246Z,3812.00
2022-08-05T04:56:49.886Z,4024.00
2022-08-05T04:57:54.103Z,4236.00
2022-08-05T04:58:49.867Z,4436.00
2022-08-05T04:59:48.975Z,4604.00
2022-08-05T05:00:50.706Z,5188.00
2022-08-05T05:02:35.356Z,6704.00
2022-08-05T05:02:49.915Z,7372.00
2022-08-05T05:03:48.818Z,8632.00
2022-08-05T05:04:49.884Z,10168.00
2022-08-05T05:06:39.070Z,11164.00
2022-08-05T05:06:57.399Z,12320.00
2022-08-05T05:07:52.971Z,12960.00
2022-08-05T05:08:50.167Z,13600.00
2022-08-05T05:09:48.750Z,14624.00
2022-08-05T05:10:56.331Z,15360.00
2022-08-05T05:11:55.693Z,15200.00
2022-08-05T05:12:50.702Z,15040.00
2022-08-05T05:13:48.716Z,15456.00
2022-08-05T05:14:50.719Z,15744.00
2022-08-05T05:15:56.689Z,16512.00
2022-08-05T05:16:50.570Z,16352.00
2022-08-05T05:17:56.974Z,16640.00
2022-08-05T05:19:16.554Z,16704.00
2022-08-05T05:19:49.639Z,17216.00
2022-08-05T05:20:49.785Z,18208.00
2022-08-05T05:21:48.723Z,18464.00
2022-08-05T05:22:49.688Z,19008.00
2022-08-05T05:24:03.763Z,20480.00
2022-08-05T05:24:57.572Z,22112.00
2022-08-05T05:25:49.587Z,23360.00
2022-08-05T05:26:48.568Z,23744.00
2022-08-05T05:27:53.963Z,23456.00
2022-08-05T05:28:49.555Z,23872.00
2022-08-05T05:30:04.175Z,24736.00
2022-08-05T05:30:49.906Z,25024.00
2022-08-05T05:31:48.532Z,25888.00
2022-08-05T05:32:48.739Z,27008.00
2022-08-05T05:33:59.193Z,28096.00
2022-08-05T05:34:49.482Z,28544.00
2022-08-05T05:35:48.590Z,28000.00
2022-08-05T05:36:48.457Z,27968.00
2022-08-05T05:37:59.974Z,28576.00
2022-08-05T05:38:49.437Z,29152.00
2022-08-05T05:39:48.510Z,29760.00
2022-08-05T05:40:51.433Z,28832.00
2022-08-05T05:41:54.024Z,25440.00
2022-08-05T05:42:49.375Z,19744.00
2022-08-05T05:43:57.397Z,15488.00
2022-08-05T05:44:49.355Z,12844.00
2022-08-05T05:45:48.569Z,12764.00
2022-08-05T05:46:48.330Z,19648.00
2022-08-05T05:48:06.178Z,16864.00
2022-08-05T05:48:49.317Z,11816.00
2022-08-05T05:49:56.473Z,15552.00
2022-08-05T05:50:49.304Z,11816.00
2022-08-05T05:51:49.612Z,8540.00
2022-08-05T05:52:48.271Z,8884.00
2022-08-05T05:53:57.193Z,10576.00
2022-08-05T05:54:50.886Z,9448.00
2022-08-05T05:55:51.892Z,27424.00
2022-08-05T05:56:49.253Z,11040.00
2022-08-05T05:57:52.779Z,14276.00
2022-08-05T05:58:48.222Z,23072.00
2022-08-05T05:59:48.948Z,37216.00
2022-08-05T06:00:48.185Z,38496.00
2022-08-05T06:01:57.618Z,38496.00
2022-08-05T06:02:49.166Z,37952.00
2022-08-05T06:04:00.584Z,36064.00
2022-08-05T06:04:49.485Z,36928.00
2022-08-05T06:05:53.993Z,37728.00
2022-08-05T06:06:49.191Z,38176.00
2022-08-05T06:08:01.272Z,39904.00
2022-08-05T06:08:49.435Z,40416.00
2022-08-05T06:10:00.282Z,40128.00
2022-08-05T06:10:52.718Z,41568.00
2022-08-05T06:11:59.536Z,42304.00
2022-08-05T06:12:49.057Z,41408.00
2022-08-05T06:13:53.743Z,41920.00
2022-08-05T06:14:49.032Z,44832.00
2022-08-05T06:16:28.473Z,46560.00
2022-08-05T06:16:49.030Z,44384.00
2022-08-05T06:17:53.641Z,36448.00
2022-08-05T06:18:49.111Z,45728.00
2022-08-05T06:19:56.377Z,44320.00
2022-08-05T06:20:49.059Z,40800.00
2022-08-05T06:21:49.724Z,27168.00
2022-08-05T06:22:47.965Z,30784.00
2022-08-05T06:23:49.815Z,19616.00
2022-08-05T06:24:48.811Z,53824.00
2022-08-05T06:26:12.812Z,56000.00
2022-08-05T06:26:52.231Z,56064.00
2022-08-05T06:28:12.440Z,46112.00
2022-08-05T06:28:48.883Z,54016.00
2022-08-05T06:30:04.297Z,54400.00
2022-08-05T06:30:48.868Z,54880.00
2022-08-05T06:31:47.864Z,55968.00
2022-08-05T06:32:47.855Z,19872.00
2022-08-05T06:34:06.889Z,40960.00
2022-08-05T06:34:53.533Z,23200.00
2022-08-05T06:36:07.370Z,24448.00
2022-08-05T06:36:57.454Z,27488.00
2022-08-05T06:37:57.616Z,19904.00
2022-08-05T06:38:48.796Z,20256.00
2022-08-05T06:39:47.816Z,23200.00
2022-08-05T06:40:47.746Z,54240.00
2022-08-05T06:41:47.758Z,36000.00
2022-08-05T06:42:47.737Z,51040.00
2022-08-05T06:43:58.903Z,26464.00
2022-08-05T06:44:49.212Z,25120.00
2022-08-05T06:46:03.820Z,24928.00
2022-08-05T06:46:50.966Z,26016.00
2022-08-05T06:48:36.023Z,28000.00
2022-08-05T06:48:56.370Z,30784.00
2022-08-05T06:50:00.229Z,40832.00
2022-08-05T06:50:49.979Z,28416.00
2022-08-05T06:51:47.631Z,35136.00
2022-08-05T06:53:03.502Z,72160.00
2022-08-05T06:53:53.464Z,27936.00
2022-08-05T06:54:48.748Z,26720.00
2022-08-05T06:55:47.657Z,24832.00
2022-08-05T06:56:55.127Z,23584.00
2022-08-05T06:58:03.108Z,22592.00
2022-08-05T06:58:48.605Z,22496.00
2022-08-05T06:59:54.998Z,35232.00
2022-08-05T07:00:48.567Z,19776.00
2022-08-05T07:01:47.550Z,18336.00
2022-08-05T07:02:48.519Z,17920.00
2022-08-05T07:03:48.497Z,17920.00
2022-08-05T07:04:47.525Z,17824.00
2022-08-05T07:05:47.518Z,15344.00
2022-08-05T07:06:50.489Z,14456.00
2022-08-05T07:07:47.448Z,14200.00
2022-08-05T07:08:54.798Z,14312.00
2022-08-05T07:09:48.446Z,14860.00
2022-08-05T07:10:53.124Z,15820.00
2022-08-05T07:11:51.590Z,17092.00
2022-08-05T07:12:49.115Z,18720.00
2022-08-05T07:13:57.896Z,20160.00
2022-08-05T07:14:48.509Z,23680.00
2022-08-05T07:16:00.903Z,46304.00
2022-08-05T07:17:59.793Z,76384.00
2022-08-05T07:18:01.836Z,67552.00
2022-08-05T07:18:48.364Z,77344.00
2022-08-05T07:20:48.315Z,46944.00
2022-08-05T07:22:00.510Z,37984.00
2022-08-05T07:22:48.309Z,36320.00
2022-08-05T07:23:49.823Z,50624.00
2022-08-05T07:24:53.554Z,34112.00
2022-08-05T07:25:54.920Z,33920.00
2022-08-05T07:26:48.357Z,52512.00
2022-08-05T07:27:57.337Z,47904.00
2022-08-05T07:28:48.271Z,37696.00
2022-08-05T07:30:24.671Z,32032.00
2022-08-05T07:30:50.320Z,81024.00
2022-08-05T07:31:54.394Z,60832.00
2022-08-05T07:32:51.037Z,73888.00
2022-08-05T07:33:48.261Z,41728.00
2022-08-05T07:34:47.184Z,36128.00
2022-08-05T07:36:05.113Z,38432.00
2022-08-05T07:36:48.153Z,26368.00
2022-08-05T07:37:47.312Z,25088.00
2022-08-05T07:38:47.143Z,25216.00
2022-08-05T07:40:04.139Z,24608.00
2022-08-05T07:40:48.211Z,25344.00
2022-08-05T07:42:13.563Z,36512.00
2022-08-05T07:42:48.078Z,43808.00
2022-08-05T07:43:47.065Z,30304.00
2022-08-05T07:44:47.134Z,26816.00
2022-08-05T07:45:57.541Z,25504.00
2022-08-05T07:46:48.433Z,24320.00
2022-08-05T07:47:47.025Z,26144.00
2022-08-05T07:49:02.269Z,42912.00
2022-08-05T07:49:54.308Z,34112.00
2022-08-05T07:50:48.065Z,37984.00
2022-08-05T07:51:54.572Z,33472.00
2022-08-05T07:52:47.968Z,100512.00
2022-08-05T07:53:50.291Z,98944.00
2022-08-05T07:54:49.098Z,94624.00
2022-08-05T07:56:06.544Z,93504.00
2022-08-05T07:57:01.793Z,90688.00
2022-08-05T07:58:02.125Z,95072.00
2022-08-05T07:58:58.685Z,93280.00
2022-08-05T07:59:48.901Z,97568.00
2022-08-05T08:00:46.963Z,94432.00
2022-08-05T08:01:52.235Z,92608.00
2022-08-05T08:03:14.655Z,94528.00
2022-08-05T08:03:47.847Z,94208.00
2022-08-05T08:04:46.935Z,99648.00
2022-08-05T08:05:49.703Z,101568.00
2022-08-05T08:06:46.815Z,106240.00
2022-08-05T08:08:00.064Z,100928.00
2022-08-05T08:08:47.895Z,99776.00
2022-08-05T08:09:46.795Z,96992.00
2022-08-05T08:10:48.821Z,98464.00
2022-08-05T08:11:49.452Z,96224.00
2022-08-05T08:12:49.506Z,97440.00
2022-08-05T08:13:49.538Z,101408.00
2022-08-05T08:14:47.782Z,62144.00
2022-08-05T08:16:49.709Z,104000.00
2022-08-05T08:16:51.080Z,101216.00
2022-08-05T08:17:52.813Z,94848.00
2022-08-05T08:18:50.160Z,98944.00
2022-08-05T08:20:43.275Z,104064.00
2022-08-05T08:21:02.179Z,106368.00
2022-08-05T08:21:47.673Z,108736.00
2022-08-05T08:22:46.692Z,109600.00
2022-08-05T08:24:01.456Z,111872.00
2022-08-05T08:24:51.351Z,111456.00
2022-08-05T08:26:00.560Z,106592.00
2022-08-05T08:26:47.598Z,101376.00
2022-08-05T08:27:47.973Z,111584.00
2022-08-05T08:28:59.511Z,112448.00
2022-08-05T08:30:05.343Z,114880.00
2022-08-05T08:30:49.957Z,113536.00
2022-08-05T08:31:46.556Z,106560.00
2022-08-05T08:32:46.581Z,106208.00
2022-08-05T08:33:46.839Z,103520.00
2022-08-05T08:34:46.623Z,102368.00
2022-08-05T08:35:52.828Z,106752.00
2022-08-05T08:36:52.457Z,110912.00
2022-08-05T08:37:47.499Z,106400.00
2022-08-05T08:38:53.113Z,105120.00
2022-08-05T08:39:49.644Z,113696.00
2022-08-05T08:40:51.702Z,111136.00
2022-08-05T08:41:52.200Z,107488.00
2022-08-05T08:42:51.059Z,109312.00
2022-08-05T08:45:17.947Z,112864.00
2022-08-05T08:45:19.420Z,110560.00
2022-08-05T08:45:47.383Z,105696.00
2022-08-05T08:46:46.414Z,106016.00
2022-08-05T08:48:06.089Z,107744.00
2022-08-05T08:49:06.329Z,108256.00
2022-08-05T08:50:05.841Z,109728.00
2022-08-05T08:51:04.108Z,109440.00
2022-08-05T08:52:04.127Z,103936.00
2022-08-05T08:52:51.474Z,99520.00
2022-08-05T08:53:46.299Z,101696.00
2022-08-05T08:54:46.352Z,110528.00
2022-08-05T08:56:04.750Z,105184.00
2022-08-05T08:56:47.644Z,110912.00
2022-08-05T08:57:58.110Z,118848.00
2022-08-05T08:58:47.645Z,122368.00
2022-08-05T08:59:47.264Z,119584.00
2022-08-05T09:00:46.354Z,117024.00
2022-08-05T09:01:46.283Z,120128.00
2022-08-05T09:02:47.212Z,118784.00
2022-08-05T09:03:46.213Z,105248.00
2022-08-05T09:04:58.360Z,116512.00
2022-08-05T09:06:08.789Z,127840.00
2022-08-05T09:06:47.190Z,123808.00
2022-08-05T09:07:57.437Z,125344.00
2022-08-05T09:08:47.139Z,133056.00
2022-08-05T09:09:46.138Z,127904.00
2022-08-05T09:10:46.830Z,117440.00
2022-08-05T09:11:52.477Z,115648.00
2022-08-05T09:12:51.043Z,119776.00
2022-08-05T09:14:09.396Z,121248.00
2022-08-05T09:14:57.151Z,123040.00
2022-08-05T09:15:47.065Z,131488.00
2022-08-05T09:16:48.814Z,125760.00
2022-08-05T09:17:49.477Z,116384.00
2022-08-05T09:18:46.034Z,117728.00
2022-08-05T09:19:55.414Z,125248.00
2022-08-05T09:20:47.026Z,123936.00
2022-08-05T09:22:18.479Z,117120.00
2022-08-05T09:22:51.844Z,122720.00
2022-08-05T09:23:46.985Z,81056.00
2022-08-05T09:24:45.981Z,97344.00
2022-08-05T09:26:01.137Z,100448.00
2022-08-05T09:26:47.061Z,111424.00
2022-08-05T09:28:04.564Z,75776.00
2022-08-05T09:28:46.924Z,103008.00
2022-08-05T09:29:47.650Z,77280.00
2022-08-05T09:30:45.901Z,62400.00
2022-08-05T09:32:40.193Z,32064.00
2022-08-05T09:32:47.051Z,30048.00
2022-08-05T09:33:45.866Z,28704.00
2022-08-05T09:34:45.864Z,27360.00
2022-08-05T09:35:45.871Z,25824.00
2022-08-05T09:36:56.156Z,24800.00
2022-08-05T09:38:17.423Z,23968.00
2022-08-05T09:38:46.863Z,23232.00
2022-08-05T09:39:52.417Z,22720.00
2022-08-05T09:40:52.666Z,21632.00
2022-08-05T09:41:46.784Z,21024.00
2022-08-05T09:42:48.289Z,20288.00
2022-08-05T09:43:45.809Z,19520.00
2022-08-05T09:44:45.759Z,18752.00
2022-08-05T09:46:06.357Z,18304.00
2022-08-05T09:46:51.957Z,18464.00
2022-08-05T09:47:56.062Z,18272.00
2022-08-05T09:48:55.401Z,17952.00
2022-08-05T09:49:54.822Z,17632.00
2022-08-05T09:50:46.681Z,17792.00
2022-08-05T09:51:49.418Z,18208.00
2022-08-05T09:52:45.720Z,19264.00
2022-08-05T09:53:54.691Z,20800.00
2022-08-05T09:54:46.660Z,22688.00
2022-08-05T09:55:58.062Z,25536.00
2022-08-05T09:56:52.238Z,28192.00
2022-08-05T09:57:46.814Z,36160.00
2022-08-05T09:58:45.626Z,39360.00
2022-08-05T09:59:45.614Z,35392.00
2022-08-05T10:00:45.757Z,29952.00
2022-08-05T10:01:46.382Z,30976.00
2022-08-05T10:02:45.665Z,37792.00
2022-08-05T10:03:58.519Z,83360.00
2022-08-05T10:04:46.571Z,136800.00
2022-08-05T10:05:45.529Z,139296.00
2022-08-05T10:06:49.918Z,135232.00
2022-08-05T10:08:10.349Z,141344.00
2022-08-05T10:08:50.288Z,134368.00
2022-08-05T10:09:46.504Z,143776.00
2022-08-05T10:10:48.220Z,136768.00
2022-08-05T10:11:45.478Z,132928.00
2022-08-05T10:12:49.715Z,28224.00
2022-08-05T10:13:48.189Z,25408.00
2022-08-05T10:14:45.446Z,24032.00
2022-08-05T10:15:45.432Z,25152.00
2022-08-05T10:16:52.498Z,29760.00
2022-08-05T10:17:56.620Z,41952.00
2022-08-05T10:18:47.979Z,37344.00
2022-08-05T10:20:04.337Z,76608.00
2022-08-05T10:20:47.665Z,115552.00
2022-08-05T10:21:45.353Z,31232.00
2022-08-05T10:22:50.698Z,40320.00
2022-08-05T10:23:59.947Z,38400.00
2022-08-05T10:24:46.320Z,95776.00
2022-08-05T10:25:45.332Z,41792.00
2022-08-05T10:26:51.482Z,29312.00
2022-08-05T10:28:13.166Z,28128.00
2022-08-05T10:28:46.682Z,29856.00
2022-08-05T10:30:41.191Z,31328.00
2022-08-05T10:32:52.050Z,32096.00
2022-08-05T10:32:54.430Z,35232.00
2022-08-05T10:33:01.408Z,36608.00
2022-08-05T10:33:46.232Z,34880.00
2022-08-05T10:34:46.228Z,34848.00
2022-08-05T10:35:48.433Z,108128.00
2022-08-05T10:36:46.259Z,35136.00
2022-08-05T10:37:45.308Z,37696.00
2022-08-05T10:38:45.176Z,123584.00
2022-08-05T10:40:04.019Z,37536.00
2022-08-05T10:40:46.190Z,128864.00
2022-08-05T10:41:47.057Z,133088.00
2022-08-05T10:42:45.137Z,52960.00
2022-08-05T10:43:45.127Z,40096.00
2022-08-05T10:44:45.110Z,109856.00
2022-08-05T10:45:45.106Z,81344.00
2022-08-05T10:46:45.087Z,32000.00
2022-08-05T10:47:47.095Z,30720.00
2022-08-05T10:48:52.622Z,37664.00
2022-08-05T10:49:48.711Z,103744.00
2022-08-05T10:50:45.104Z,57504.00
2022-08-05T10:51:57.567Z,52992.00
2022-08-05T10:52:49.487Z,108352.00
2022-08-05T10:53:45.390Z,45856.00
2022-08-05T10:54:46.897Z,37280.00
2022-08-05T10:56:05.403Z,76512.00
2022-08-05T10:56:46.077Z,128384.00
2022-08-05T10:57:44.990Z,55776.00
2022-08-05T10:58:48.699Z,63424.00
2022-08-05T11:00:02.841Z,45280.00
2022-08-05T11:00:45.977Z,82336.00
2022-08-05T11:01:55.601Z,125984.00
2022-08-05T11:02:50.479Z,97472.00
2022-08-05T11:03:45.963Z,46560.00
2022-08-05T11:04:44.898Z,127392.00
2022-08-05T11:05:44.876Z,114464.00
2022-08-05T11:06:44.880Z,134016.00
2022-08-05T11:08:01.105Z,120224.00
2022-08-05T11:08:45.840Z,124800.00
2022-08-05T11:09:46.120Z,126112.00
2022-08-05T11:10:50.307Z,128128.00
2022-08-05T11:11:52.659Z,124224.00
2022-08-05T11:12:54.180Z,133344.00
2022-08-05T11:13:57.538Z,126944.00
2022-08-05T11:15:12.144Z,126624.00
2022-08-05T11:16:00.192Z,120608.00
2022-08-05T11:16:47.824Z,124736.00
2022-08-05T11:18:07.419Z,84224.00
2022-08-05T11:18:47.073Z,120096.00
2022-08-05T11:20:17.375Z,124768.00
2022-08-05T11:20:45.713Z,127872.00
2022-08-05T11:21:49.568Z,43744.00
2022-08-05T11:22:49.670Z,33568.00
2022-08-05T11:24:02.955Z,33664.00
2022-08-05T11:24:50.713Z,37216.00
2022-08-05T11:26:04.942Z,27488.00
2022-08-05T11:26:49.421Z,24928.00
2022-08-05T11:27:51.906Z,24672.00
2022-08-05T11:28:45.638Z,24928.00
2022-08-05T11:29:44.632Z,26080.00
2022-08-05T11:30:44.612Z,23872.00
2022-08-05T11:31:57.500Z,22144.00
2022-08-05T11:32:47.877Z,21216.00
2022-08-05T11:33:48.020Z,20224.00
2022-08-05T11:34:47.516Z,19776.00
2022-08-05T11:36:07.753Z,20032.00
2022-08-05T11:36:45.535Z,20384.00
2022-08-05T11:38:29.693Z,20608.00
2022-08-05T11:38:51.246Z,20448.00
2022-08-05T11:39:48.051Z,20672.00
2022-08-05T11:40:44.525Z,21664.00
2022-08-05T11:42:01.203Z,23616.00
2022-08-05T11:42:45.484Z,24960.00
2022-08-05T11:44:05.439Z,26592.00
2022-08-05T11:44:53.668Z,28864.00
2022-08-05T11:46:27.075Z,27456.00
2022-08-05T11:46:58.233Z,25632.00
2022-08-05T11:47:49.383Z,25280.00
2022-08-05T11:48:45.502Z,24192.00
2022-08-05T11:49:51.171Z,21472.00
2022-08-05T11:50:45.400Z,19936.00
2022-08-05T11:51:49.777Z,19968.00
2022-08-05T11:52:48.911Z,20192.00
2022-08-05T11:53:44.368Z,21856.00
2022-08-05T11:54:54.832Z,25120.00
2022-08-05T11:55:45.348Z,23904.00
2022-08-05T11:56:44.324Z,25696.00
2022-08-05T11:58:09.811Z,30080.00
2022-08-05T11:58:52.920Z,31936.00
2022-08-05T11:59:50.354Z,95584.00
2022-08-05T12:00:47.043Z,59904.00
2022-08-05T12:01:45.285Z,102720.00
2022-08-05T12:02:44.601Z,64416.00
2022-08-05T12:03:44.251Z,107584.00
2022-08-05T12:04:45.291Z,114400.00
2022-08-05T12:05:45.282Z,117536.00
2022-08-05T12:06:48.853Z,109920.00
2022-08-05T12:08:08.752Z,96672.00
2022-08-05T12:08:49.768Z,106176.00
2022-08-05T12:09:53.178Z,118496.00
2022-08-05T12:10:46.540Z,116352.00
2022-08-05T12:11:44.183Z,118208.00
2022-08-05T12:12:59.339Z,122368.00